createdAt,value
2018-04-18T00:00:59.535Z,14.80
2018-04-18T00:03:27.914Z,14.50
2018-04-18T00:05:56.442Z,14.63
2018-04-18T00:08:24.647Z,14.74
2018-04-18T00:10:52.960Z,14.53
2018-04-18T00:13:21.331Z,13.63
2018-04-18T00:15:49.875Z,13.88
2018-04-18T00:18:18.403Z,14.04
2018-04-18T00:20:46.846Z,13.58
2018-04-18T00:23:15.426Z,13.25
2018-04-18T00:25:43.819Z,13.29
2018-04-18T00:28:12.077Z,13.32
2018-04-18T00:30:40.366Z,13.42
2018-04-18T00:33:08.839Z,13.31
2018-04-18T00:35:37.314Z,13.67
2018-04-18T00:38:05.608Z,13.64
2018-04-18T00:40:34.165Z,13.08
2018-04-18T00:43:02.826Z,12.99
2018-04-18T00:45:31.244Z,13.07
2018-04-18T00:47:59.827Z,13.28
2018-04-18T00:50:28.038Z,13.53
2018-04-18T00:52:56.702Z,13.57
2018-04-18T00:55:25.054Z,13.61
2018-04-18T00:57:53.349Z,13.54
2018-04-18T01:00:21.918Z,13.77
2018-04-18T01:02:50.222Z,13.64
2018-04-18T01:05:18.669Z,13.63
2018-04-18T01:07:47.352Z,13.73
2018-04-18T01:10:15.888Z,13.78
2018-04-18T01:12:44.452Z,13.81
2018-04-18T01:15:12.903Z,13.83
2018-04-18T01:17:41.449Z,13.54
2018-04-18T01:20:10.341Z,13.72
2018-04-18T01:22:38.757Z,13.81
2018-04-18T01:25:07.433Z,13.78
2018-04-18T01:27:35.750Z,13.41
2018-04-18T01:30:03.996Z,13.18
2018-04-18T01:32:32.782Z,12.56
2018-04-18T01:35:01.223Z,12.68
2018-04-18T01:37:29.759Z,13.29
2018-04-18T01:39:58.326Z,13.07
2018-04-18T01:42:26.799Z,12.70
2018-04-18T01:44:55.322Z,13.16
2018-04-18T01:47:23.968Z,13.25
2018-04-18T01:49:52.422Z,13.28
2018-04-18T01:52:20.827Z,12.25
2018-04-18T01:54:49.411Z,11.87
2018-04-18T01:57:17.713Z,11.58
2018-04-18T01:59:46.266Z,11.78
2018-04-18T02:02:14.710Z,12.34
2018-04-18T02:04:43.314Z,12.40
2018-04-18T02:07:11.604Z,11.66
2018-04-18T02:09:40.078Z,11.58
2018-04-18T02:12:08.307Z,11.98
2018-04-18T02:14:37.144Z,12.54
2018-04-18T02:17:05.739Z,12.72
2018-04-18T02:19:33.945Z,13.06
2018-04-18T02:22:02.283Z,12.56
2018-04-18T02:24:30.612Z,12.56
2018-04-18T02:26:59.051Z,12.69
2018-04-18T02:29:27.565Z,12.87
2018-04-18T02:31:56.309Z,13.02
2018-04-18T02:34:24.678Z,12.97
2018-04-18T02:36:53.165Z,12.95
2018-04-18T02:39:21.569Z,12.88
2018-04-18T02:41:49.918Z,12.88
2018-04-18T02:44:18.170Z,12.91
2018-04-18T02:46:46.789Z,12.88
2018-04-18T02:49:15.155Z,12.91
2018-04-18T02:51:43.907Z,12.36
2018-04-18T02:54:12.236Z,12.53
2018-04-18T02:56:40.802Z,12.60
2018-04-18T02:59:09.482Z,12.68
2018-04-18T03:01:37.872Z,12.64
2018-04-18T03:04:06.536Z,12.62
2018-04-18T03:06:34.735Z,12.39
2018-04-18T03:09:03.217Z,12.45
2018-04-18T03:11:31.522Z,12.31
2018-04-18T03:13:59.779Z,12.20
2018-04-18T03:16:28.020Z,12.13
2018-04-18T03:18:56.615Z,12.00
2018-04-18T03:21:24.777Z,11.79
2018-04-18T03:23:52.975Z,11.69
2018-04-18T03:26:21.333Z,11.41
2018-04-18T03:28:49.726Z,11.21
2018-04-18T03:31:18.099Z,11.44
2018-04-18T03:33:46.279Z,11.29
2018-04-18T03:36:14.641Z,11.67
2018-04-18T03:38:43.057Z,11.76
2018-04-18T03:41:12.525Z,11.84
2018-04-18T03:43:40.687Z,11.28
2018-04-18T03:46:08.979Z,11.27
2018-04-18T03:48:37.165Z,11.18
2018-04-18T03:51:05.625Z,11.67
2018-04-18T03:53:33.802Z,11.76
2018-04-18T03:56:02.078Z,11.57
2018-04-18T03:58:30.384Z,11.65
2018-04-18T04:00:58.830Z,11.47
2018-04-18T04:03:27.347Z,11.72
2018-04-18T04:05:55.803Z,12.02
2018-04-18T04:08:24.577Z,12.09
2018-04-18T04:10:53.027Z,12.09
2018-04-18T04:13:21.580Z,12.01
2018-04-18T04:15:50.029Z,12.15
2018-04-18T04:21:35.691Z,12.55
2018-04-18T04:24:15.878Z,12.52
2018-04-18T04:26:44.278Z,11.95
2018-04-18T04:29:13.781Z,12.02
2018-04-18T04:31:42.144Z,11.77
2018-04-18T04:34:10.727Z,11.59
2018-04-18T04:36:39.118Z,12.12
2018-04-18T04:39:07.579Z,12.64
2018-04-18T04:41:35.988Z,12.40
2018-04-18T04:44:04.453Z,12.01
2018-04-18T04:46:32.912Z,11.96
2018-04-18T04:49:01.264Z,12.12
2018-04-18T04:51:29.645Z,12.06
2018-04-18T04:53:58.070Z,12.34
2018-04-18T04:56:26.562Z,12.29
2018-04-18T04:58:54.951Z,12.53
2018-04-18T05:01:23.593Z,12.57
2018-04-18T05:03:51.888Z,12.66
2018-04-18T05:06:20.253Z,12.83
2018-04-18T05:08:48.537Z,12.95
2018-04-18T05:11:17.011Z,13.06
2018-04-18T05:13:45.657Z,13.16
2018-04-18T05:16:13.987Z,13.04
2018-04-18T05:18:42.450Z,13.26
2018-04-18T05:21:10.816Z,13.24
2018-04-18T05:23:39.103Z,12.46
2018-04-18T05:26:07.686Z,11.77
2018-04-18T05:28:36.544Z,11.75
2018-04-18T05:31:05.097Z,12.10
2018-04-18T05:33:33.632Z,11.78
2018-04-18T05:36:02.332Z,11.39
2018-04-18T05:38:30.618Z,11.66
2018-04-18T05:40:59.051Z,11.92
2018-04-18T05:43:27.277Z,11.79
2018-04-18T05:45:55.625Z,12.19
2018-04-18T05:48:24.076Z,12.86
2018-04-18T05:50:52.798Z,13.24
2018-04-18T05:53:21.280Z,13.91
2018-04-18T05:55:49.568Z,14.58
2018-04-18T05:58:17.696Z,14.67
2018-04-18T06:00:45.806Z,15.77
2018-04-18T06:03:13.781Z,15.62
2018-04-18T06:05:41.774Z,14.37
2018-04-18T06:08:09.789Z,14.05
2018-04-18T06:10:37.735Z,13.77
2018-04-18T06:13:05.757Z,13.77
2018-04-18T06:15:33.739Z,14.42
2018-04-18T06:18:01.724Z,15.66
2018-04-18T06:20:29.777Z,14.51
2018-04-18T06:22:57.825Z,13.89
2018-04-18T06:25:25.841Z,15.67
2018-04-18T06:27:53.713Z,15.70
2018-04-18T06:30:21.712Z,16.63
2018-04-18T06:32:50.139Z,16.15
2018-04-18T06:35:18.148Z,16.26
2018-04-18T06:37:46.145Z,17.45
2018-04-18T06:40:14.150Z,17.44
2018-04-18T06:42:42.152Z,17.70
2018-04-18T06:45:10.151Z,17.87
2018-04-18T06:47:38.225Z,18.54
2018-04-18T06:50:06.233Z,19.25
2018-04-18T06:52:34.235Z,19.78
2018-04-18T06:55:02.278Z,18.90
2018-04-18T06:57:30.296Z,18.49
2018-04-18T06:59:58.317Z,19.27
2018-04-18T07:02:26.344Z,19.69
2018-04-18T07:04:54.373Z,19.06
2018-04-18T07:07:22.403Z,18.94
2018-04-18T07:09:50.426Z,18.81
2018-04-18T07:12:18.392Z,18.53
2018-04-18T07:14:46.491Z,18.43
2018-04-18T07:17:14.520Z,19.03
2018-04-18T07:19:42.530Z,19.95
2018-04-18T07:22:10.542Z,20.10
2018-04-18T07:24:38.532Z,19.65
2018-04-18T07:27:06.655Z,20.24
2018-04-18T07:29:34.764Z,20.70
2018-04-18T07:32:02.782Z,21.62
2018-04-18T07:34:31.065Z,20.66
2018-04-18T07:36:59.103Z,20.08
2018-04-18T07:39:27.087Z,19.69
2018-04-18T07:41:55.165Z,20.68
2018-04-18T07:44:23.176Z,20.37
2018-04-18T07:46:51.133Z,20.81
2018-04-18T07:49:19.141Z,20.91
2018-04-18T07:51:47.160Z,21.04
2018-04-18T07:54:15.220Z,20.70
2018-04-18T07:56:43.225Z,21.49
2018-04-18T07:59:11.246Z,21.85
2018-04-18T08:01:39.249Z,22.41
2018-04-18T08:04:07.280Z,22.47
2018-04-18T08:06:35.319Z,23.10
2018-04-18T08:09:03.536Z,23.18
2018-04-18T08:11:31.544Z,23.29
2018-04-18T08:13:59.502Z,23.58
2018-04-18T08:16:27.578Z,23.65
2018-04-18T08:18:55.592Z,22.95
2018-04-18T08:21:23.590Z,23.93
2018-04-18T08:23:51.593Z,23.25
2018-04-18T08:26:19.694Z,22.78
2018-04-18T08:28:47.722Z,23.69
2018-04-18T08:31:15.786Z,24.20
2018-04-18T08:33:43.824Z,23.66
2018-04-18T08:36:12.163Z,24.37
2018-04-18T08:38:40.115Z,25.48
2018-04-18T08:41:08.139Z,26.67
2018-04-18T08:43:36.182Z,24.60
2018-04-18T08:46:04.226Z,25.96
2018-04-18T08:48:32.229Z,25.67
2018-04-18T08:51:00.249Z,24.63
2018-04-18T08:53:28.178Z,25.23
2018-04-18T08:55:56.198Z,25.52
2018-04-18T08:58:24.225Z,25.85
2018-04-18T09:00:52.185Z,26.77
2018-04-18T09:03:20.125Z,26.51
2018-04-18T09:05:48.279Z,27.50
2018-04-18T09:08:16.287Z,27.40
2018-04-18T09:10:44.386Z,26.04
2018-04-18T09:13:12.437Z,27.04
2018-04-18T09:15:40.490Z,27.20
2018-04-18T09:18:08.573Z,27.38
2018-04-18T09:20:36.637Z,26.76
2018-04-18T09:23:04.632Z,26.64
2018-04-18T09:25:32.578Z,26.07
2018-04-18T09:28:00.630Z,27.63
2018-04-18T09:30:29.245Z,27.38
2018-04-18T09:32:57.543Z,27.78
2018-04-18T09:35:25.798Z,28.44
2018-04-18T09:37:54.256Z,27.70
2018-04-18T09:40:22.271Z,27.68
2018-04-18T09:42:50.695Z,28.81
2018-04-18T09:45:19.226Z,29.68
2018-04-18T09:47:47.777Z,29.34
2018-04-18T09:50:16.007Z,29.50
2018-04-18T09:52:44.545Z,30.39
2018-04-18T09:55:13.041Z,30.51
2018-04-18T09:57:41.227Z,30.58
2018-04-18T10:00:09.660Z,29.39
2018-04-18T10:02:38.102Z,30.09
2018-04-18T10:05:08.421Z,29.45
2018-04-18T10:07:36.766Z,30.44
2018-04-18T10:10:05.299Z,31.11
2018-04-18T10:12:33.945Z,30.26
2018-04-18T10:15:02.579Z,29.45
2018-04-18T10:17:31.093Z,29.96
2018-04-18T10:19:59.577Z,30.57
2018-04-18T10:22:28.164Z,30.69
2018-04-18T10:24:56.481Z,30.63
2018-04-18T10:27:25.060Z,31.10
2018-04-18T10:29:53.592Z,29.99
2018-04-18T10:32:22.327Z,31.48
2018-04-18T10:34:50.588Z,31.82
2018-04-18T10:37:18.704Z,31.30
2018-04-18T10:39:46.924Z,32.14
2018-04-18T10:42:14.917Z,31.26
2018-04-18T10:44:42.934Z,31.29
2018-04-18T10:47:11.005Z,31.41
2018-04-18T10:49:39.045Z,31.62
2018-04-18T10:52:07.464Z,31.97
2018-04-18T10:54:35.739Z,31.04
2018-04-18T10:57:04.165Z,32.44
2018-04-18T10:59:32.684Z,32.76
2018-04-18T11:02:01.188Z,33.17
2018-04-18T11:04:29.475Z,32.53
2018-04-18T11:06:57.451Z,33.71
2018-04-18T11:09:25.434Z,33.93
2018-04-18T11:11:53.406Z,34.34
2018-04-18T11:14:21.446Z,33.50
2018-04-18T11:16:49.706Z,32.17
2018-04-18T11:19:18.075Z,33.32
2018-04-18T11:21:46.253Z,32.59
2018-04-18T11:24:14.646Z,31.78
2018-04-18T11:26:42.683Z,33.95
2018-04-18T11:29:10.855Z,31.96
2018-04-18T11:31:38.841Z,32.34
2018-04-18T11:34:07.122Z,31.67
2018-04-18T11:36:35.321Z,32.82
2018-04-18T11:39:03.773Z,34.12
2018-04-18T11:41:32.072Z,33.55
2018-04-18T11:44:00.187Z,34.59
2018-04-18T11:46:28.524Z,33.73
2018-04-18T11:48:56.867Z,35.04
2018-04-18T11:51:25.302Z,31.58
2018-04-18T11:53:53.747Z,31.97
2018-04-18T11:56:22.322Z,32.58
2018-04-18T11:58:50.368Z,33.82
2018-04-18T12:01:18.334Z,34.67
2018-04-18T12:03:46.853Z,34.56
2018-04-18T12:06:15.528Z,33.43
2018-04-18T12:08:44.310Z,33.74
2018-04-18T12:11:12.600Z,32.01
2018-04-18T12:13:41.482Z,31.58
2018-04-18T12:16:10.158Z,31.58
2018-04-18T12:18:38.955Z,31.26
2018-04-18T12:21:07.227Z,31.25
2018-04-18T12:23:35.610Z,31.86
2018-04-18T12:26:03.901Z,31.74
2018-04-18T12:28:32.572Z,32.45
2018-04-18T12:31:01.465Z,33.73
2018-04-18T12:33:29.822Z,31.57
2018-04-18T12:35:58.233Z,32.13
2018-04-18T12:38:26.394Z,32.33
2018-04-18T12:40:55.035Z,32.28
2018-04-18T12:43:23.365Z,33.38
2018-04-18T12:45:52.110Z,33.30
2018-04-18T12:48:20.316Z,32.85
2018-04-18T12:50:48.881Z,32.84
2018-04-18T12:53:17.370Z,33.32
2018-04-18T12:55:45.653Z,32.81
2018-04-18T12:58:14.011Z,31.45
2018-04-18T13:00:42.230Z,31.45
2018-04-18T13:03:10.917Z,31.76
2018-04-18T13:05:39.264Z,33.32
2018-04-18T13:08:07.271Z,31.26
2018-04-18T13:10:35.228Z,31.53
2018-04-18T13:13:03.185Z,31.78
2018-04-18T13:15:31.242Z,31.67
2018-04-18T13:17:59.302Z,32.55
2018-04-18T13:20:27.336Z,32.38
2018-04-18T13:22:55.403Z,33.20
2018-04-18T13:25:23.467Z,31.59
2018-04-18T13:27:51.558Z,32.89
2018-04-18T13:30:19.569Z,31.78
2018-04-18T13:32:47.592Z,32.25
2018-04-18T13:35:15.622Z,33.15
2018-04-18T13:37:43.726Z,32.37
2018-04-18T13:40:11.837Z,31.10
2018-04-18T13:42:39.996Z,30.80
2018-04-18T13:45:08.143Z,30.89
2018-04-18T13:47:36.276Z,30.21
2018-04-18T13:50:04.362Z,30.53
2018-04-18T13:52:32.409Z,29.16
2018-04-18T13:55:00.492Z,29.04
2018-04-18T13:57:28.529Z,28.70
2018-04-18T13:59:56.523Z,28.42
2018-04-18T14:02:24.497Z,29.79
2018-04-18T14:04:52.491Z,29.28
2018-04-18T14:07:20.488Z,29.25
2018-04-18T14:09:48.503Z,30.45
2018-04-18T14:12:16.615Z,30.54
2018-04-18T14:14:44.653Z,29.84
2018-04-18T14:17:12.602Z,28.56
2018-04-18T14:19:40.621Z,28.64
2018-04-18T14:22:08.643Z,29.61
2018-04-18T14:24:36.659Z,29.27
2018-04-18T14:27:04.692Z,29.51
2018-04-18T14:29:32.674Z,29.51
2018-04-18T14:32:00.877Z,29.17
2018-04-18T14:34:28.897Z,28.08
2018-04-18T14:36:56.965Z,27.50
2018-04-18T14:39:24.990Z,28.10
2018-04-18T14:41:52.987Z,28.33
2018-04-18T14:44:21.061Z,28.07
2018-04-18T14:46:49.469Z,28.15
2018-04-18T14:49:17.573Z,28.16
2018-04-18T14:51:45.641Z,27.79
2018-04-18T14:54:13.697Z,27.83
2018-04-18T14:56:41.761Z,27.45
2018-04-18T14:59:09.760Z,26.10
2018-04-18T15:01:37.757Z,25.78
2018-04-18T15:04:05.865Z,25.89
2018-04-18T15:06:33.849Z,25.66
2018-04-18T15:09:01.922Z,25.13
2018-04-18T15:11:30.066Z,25.75
2018-04-18T15:13:58.511Z,25.64
2018-04-18T15:16:26.566Z,25.66
2018-04-18T15:18:54.969Z,25.69
2018-04-18T15:21:23.193Z,25.46
2018-04-18T15:23:51.738Z,25.34
2018-04-18T15:26:20.134Z,25.97
2018-04-18T15:28:48.577Z,26.18
2018-04-18T15:31:17.157Z,26.31
2018-04-18T15:33:45.855Z,26.29
2018-04-18T15:36:15.455Z,26.34
2018-04-18T15:38:43.934Z,25.85
2018-04-18T15:41:12.521Z,25.64
2018-04-18T15:43:40.997Z,25.69
2018-04-18T15:46:09.180Z,25.35
2018-04-18T15:48:37.649Z,25.33
2018-04-18T15:51:06.658Z,25.53
2018-04-18T15:53:35.328Z,25.32
2018-04-18T15:56:03.719Z,24.70
2018-04-18T15:58:32.175Z,24.71
2018-04-18T16:01:00.402Z,24.21
2018-04-18T16:03:28.877Z,23.79
2018-04-18T16:05:57.318Z,23.95
2018-04-18T16:08:25.615Z,23.90
2018-04-18T16:10:54.086Z,23.94
2018-04-18T16:13:22.371Z,24.14
2018-04-18T16:15:50.979Z,24.20
2018-04-18T16:18:19.468Z,24.23
2018-04-18T16:20:47.473Z,24.10
2018-04-18T16:23:15.583Z,23.44
2018-04-18T16:25:43.577Z,23.50
2018-04-18T16:28:11.973Z,23.92
2018-04-18T16:30:42.948Z,24.14
2018-04-18T16:33:11.021Z,24.27
2018-04-18T16:35:39.119Z,24.04
2018-04-18T16:38:07.127Z,24.10
2018-04-18T16:40:35.185Z,24.11
2018-04-18T16:43:03.703Z,23.92
2018-04-18T16:45:32.288Z,23.88
2018-04-18T16:48:00.414Z,23.91
2018-04-18T16:50:29.150Z,23.86
2018-04-18T16:52:57.355Z,23.73
2018-04-18T16:55:25.824Z,23.69
2018-04-18T16:57:54.288Z,23.67
2018-04-18T17:00:22.803Z,23.12
2018-04-18T17:02:51.371Z,23.04
2018-04-18T17:05:20.029Z,23.26
2018-04-18T17:07:47.982Z,23.02
2018-04-18T17:10:16.071Z,23.00
2018-04-18T17:12:44.546Z,23.01
2018-04-18T17:15:13.129Z,22.57
2018-04-18T17:17:41.610Z,22.75
2018-04-18T17:20:09.906Z,22.75
2018-04-18T17:22:38.466Z,22.18
2018-04-18T17:25:07.156Z,22.20
2018-04-18T17:27:35.544Z,22.46
2018-04-18T17:30:04.234Z,22.42
2018-04-18T17:32:32.589Z,22.66
2018-04-18T17:35:01.090Z,22.69
2018-04-18T17:37:29.450Z,22.68
2018-04-18T17:39:57.927Z,22.68
2018-04-18T17:42:26.409Z,22.80
2018-04-18T17:44:55.303Z,22.26
2018-04-18T17:47:23.718Z,21.97
2018-04-18T17:49:52.174Z,22.23
2018-04-18T17:52:21.057Z,22.30
2018-04-18T17:54:49.740Z,22.13
2018-04-18T17:57:18.108Z,22.27
2018-04-18T17:59:46.561Z,22.26
2018-04-18T18:02:14.969Z,21.72
2018-04-18T18:04:43.523Z,21.91
2018-04-18T18:07:11.801Z,21.77
2018-04-18T18:09:40.157Z,22.08
2018-04-18T18:12:08.237Z,21.99
2018-04-18T18:14:36.202Z,22.16
2018-04-18T18:17:04.169Z,21.99
2018-04-18T18:19:32.263Z,21.84
2018-04-18T18:22:00.364Z,21.86
2018-04-18T18:24:28.467Z,21.75
2018-04-18T18:26:56.532Z,21.05
2018-04-18T18:29:24.591Z,21.28
2018-04-18T18:31:52.627Z,21.55
2018-04-18T18:34:21.160Z,21.40
2018-04-18T18:36:49.502Z,21.44
2018-04-18T18:39:17.630Z,20.73
2018-04-18T18:41:46.259Z,21.28
2018-04-18T18:44:14.703Z,21.57
2018-04-18T18:46:43.254Z,21.67
2018-04-18T18:49:11.331Z,21.69
2018-04-18T18:51:39.687Z,21.70
2018-04-18T18:54:08.450Z,21.47
2018-04-18T18:56:36.441Z,21.36
2018-04-18T18:59:04.465Z,21.19
2018-04-18T19:01:32.498Z,20.76
2018-04-18T19:04:00.583Z,20.68
2018-04-18T19:06:28.643Z,20.48
2018-04-18T19:08:56.685Z,20.49
2018-04-18T19:11:24.687Z,20.27
2018-04-18T19:13:52.703Z,19.88
2018-04-18T19:16:20.763Z,20.27
2018-04-18T19:18:48.823Z,20.06
2018-04-18T19:21:17.330Z,20.50
2018-04-18T19:23:45.737Z,20.23
2018-04-18T19:26:14.211Z,19.89
2018-04-18T19:28:42.884Z,20.10
2018-04-18T19:31:11.872Z,20.41
2018-04-18T19:33:40.453Z,20.65
2018-04-18T19:36:09.205Z,20.19
2018-04-18T19:38:37.639Z,20.18
2018-04-18T19:41:06.098Z,19.69
2018-04-18T19:43:34.395Z,20.01
2018-04-18T19:46:03.080Z,20.34
2018-04-18T19:48:31.637Z,20.51
2018-04-18T19:51:00.082Z,20.57
2018-04-18T19:53:28.419Z,20.35
2018-04-18T19:55:57.180Z,19.96
2018-04-18T19:58:26.175Z,19.93
2018-04-18T20:00:54.471Z,20.36
2018-04-18T20:03:22.931Z,19.96
2018-04-18T20:05:51.520Z,20.18
2018-04-18T20:08:19.815Z,20.22
2018-04-18T20:10:48.171Z,20.33
2018-04-18T20:13:16.424Z,20.29
2018-04-18T20:15:45.042Z,19.97
2018-04-18T20:18:13.413Z,19.78
2018-04-18T20:20:41.531Z,19.71
2018-04-18T20:23:10.257Z,19.38
2018-04-18T20:25:38.461Z,19.61
2018-04-18T20:28:07.268Z,19.61
2018-04-18T20:30:35.925Z,19.78
2018-04-18T20:33:04.249Z,19.10
2018-04-18T20:35:32.669Z,19.03
2018-04-18T20:38:01.497Z,19.24
2018-04-18T20:40:30.343Z,18.99
2018-04-18T20:42:58.878Z,18.60
2018-04-18T20:45:27.468Z,19.04
2018-04-18T20:47:55.679Z,18.86
2018-04-18T20:50:23.967Z,18.68
2018-04-18T20:52:52.638Z,18.73
2018-04-18T20:55:21.117Z,18.95
2018-04-18T20:57:49.665Z,19.12
2018-04-18T21:00:18.317Z,19.18
2018-04-18T21:02:46.866Z,18.83
2018-04-18T21:05:15.708Z,18.62
2018-04-18T21:07:44.169Z,19.05
2018-04-18T21:10:12.717Z,19.03
2018-04-18T21:12:41.408Z,19.28
2018-04-18T21:15:09.903Z,18.39
2018-04-18T21:17:38.612Z,18.22
2018-04-18T21:20:06.942Z,18.03
2018-04-18T21:22:35.186Z,18.04
2018-04-18T21:25:03.497Z,18.59
2018-04-18T21:27:32.128Z,18.42
2018-04-18T21:30:00.658Z,18.26
2018-04-18T21:32:29.262Z,18.36
2018-04-18T21:34:57.617Z,18.59
2018-04-18T21:37:25.997Z,18.91
2018-04-18T21:39:54.371Z,19.19
2018-04-18T21:42:22.891Z,19.13
2018-04-18T21:44:51.438Z,19.27
2018-04-18T21:47:19.969Z,19.35
2018-04-18T21:49:48.740Z,19.40
2018-04-18T21:52:16.977Z,19.35
2018-04-18T21:54:45.280Z,19.13
2018-04-18T21:57:13.837Z,19.08
2018-04-18T21:59:42.829Z,19.04
2018-04-18T22:02:11.320Z,18.90
2018-04-18T22:04:39.731Z,18.75
2018-04-18T22:07:08.483Z,18.76
2018-04-18T22:09:37.064Z,18.42
2018-04-18T22:12:05.711Z,17.86
2018-04-18T22:14:34.398Z,17.70
2018-04-18T22:17:02.783Z,17.14
2018-04-18T22:19:31.296Z,17.13
2018-04-18T22:21:59.641Z,16.90
2018-04-18T22:24:28.255Z,16.78
2018-04-18T22:26:56.532Z,16.96
2018-04-18T22:29:25.179Z,16.67
2018-04-18T22:31:53.486Z,16.63
2018-04-18T22:34:21.699Z,16.58
2018-04-18T22:36:50.171Z,16.60
2018-04-18T22:39:18.624Z,16.85
2018-04-18T22:41:47.019Z,17.04
2018-04-18T22:44:15.688Z,16.82
2018-04-18T22:46:44.028Z,16.82
2018-04-18T22:49:12.692Z,16.97
2018-04-18T22:51:41.194Z,16.89
2018-04-18T22:54:09.822Z,16.78
2018-04-18T22:56:38.567Z,16.71
2018-04-18T22:59:07.026Z,16.87
2018-04-18T23:01:35.567Z,17.17
2018-04-18T23:04:04.154Z,17.45
2018-04-18T23:06:32.689Z,17.55
2018-04-18T23:09:01.006Z,17.61
2018-04-18T23:11:29.582Z,17.78
2018-04-18T23:13:57.993Z,17.79
2018-04-18T23:16:26.340Z,17.78
2018-04-18T23:18:55.144Z,17.69
2018-04-18T23:21:23.489Z,17.58
2018-04-18T23:23:51.780Z,17.60
2018-04-18T23:26:20.327Z,17.58
2018-04-18T23:28:48.697Z,17.57
2018-04-18T23:31:16.914Z,17.62
2018-04-18T23:33:45.098Z,17.61
2018-04-18T23:36:13.806Z,17.57
2018-04-18T23:38:42.256Z,17.20
2018-04-18T23:41:10.655Z,16.83
2018-04-18T23:43:39.221Z,16.99
2018-04-18T23:46:08.003Z,17.05
2018-04-18T23:48:36.436Z,17.06
2018-04-18T23:51:04.881Z,17.17
2018-04-18T23:53:33.437Z,17.02
2018-04-18T23:56:01.852Z,16.80
2018-04-18T23:58:30.106Z,16.98
